sensor_id;sensor_type;location;lat;lon;timestamp;pressure;altitude;pressure_sealevel;temperature;humidity
34586;BME280;20816;50.950;11.108;2023-04-29T00:00:04;97893.41;;;12.65;100.00
34586;BME280;20816;50.950;11.108;2023-04-29T00:02:32;97903.66;;;12.50;100.00
34586;BME280;20816;50.950;11.108;2023-04-29T00:04:59;97908.94;;;12.50;100.00
34586;BME280;20816;50.950;11.108;2023-04-29T00:07:26;97898.53;;;12.47;100.00
34586;BME280;20816;50.950;11.108;2023-04-29T00:09:53;97905.50;;;12.48;100.00
34586;BME280;20816;50.950;11.108;2023-04-29T00:12:19;97902.31;;;12.40;100.00
34586;BME280;20816;50.950;11.108;2023-04-29T00:14:46;97895.56;;;12.33;100.00
34586;BME280;20816;50.950;11.108;2023-04-29T00:17:13;97894.19;;;12.46;100.00
34586;BME280;20816;50.950;11.108;2023-04-29T00:19:39;97893.66;;;12.37;100.00
34586;BME280;20816;50.950;11.108;2023-04-29T00:22:06;97892.03;;;12.34;100.00
34586;BME280;20816;50.950;11.108;2023-04-29T00:24:33;97895.44;;;12.36;100.00
34586;BME280;20816;50.950;11.108;2023-04-29T00:27:00;97891.09;;;12.35;100.00
34586;BME280;20816;50.950;11.108;2023-04-29T00:29:27;97892.16;;;12.31;100.00
34586;BME280;20816;50.950;11.108;2023-04-29T00:31:54;97884.50;;;12.25;100.00
34586;BME280;20816;50.950;11.108;2023-04-29T00:34:21;97893.31;;;12.24;100.00
34586;BME280;20816;50.950;11.108;2023-04-29T00:36:47;97892.41;;;12.25;100.00
34586;BME280;20816;50.950;11.108;2023-04-29T00:39:14;97896.66;;;12.27;100.00
34586;BME280;20816;50.950;11.108;2023-04-29T00:41:41;97895.81;;;12.27;100.00
34586;BME280;20816;50.950;11.108;2023-04-29T00:44:08;97897.53;;;12.28;100.00
34586;BME280;20816;50.950;11.108;2023-04-29T00:46:35;97902.69;;;12.31;100.00
34586;BME280;20816;50.950;11.108;2023-04-29T00:49:02;97905.88;;;12.39;100.00
34586;BME280;20816;50.950;11.108;2023-04-29T00:51:29;97897.53;;;12.28;100.00
34586;BME280;20816;50.950;11.108;2023-04-29T00:53:56;97903.41;;;12.34;100.00
34586;BME280;20816;50.950;11.108;2023-04-29T00:56:22;97905.97;;;12.36;100.00
34586;BME280;20816;50.950;11.108;2023-04-29T00:58:50;97905.69;;;12.22;100.00
34586;BME280;20816;50.950;11.108;2023-04-29T01:01:18;97914.31;;;12.25;100.00
34586;BME280;20816;50.950;11.108;2023-04-29T01:03:45;97908.91;;;12.28;100.00
34586;BME280;20816;50.950;11.108;2023-04-29T01:11:16;97921.25;;;12.28;100.00
34586;BME280;20816;50.950;11.108;2023-04-29T01:13:50;97917.66;;;12.30;100.00
34586;BME280;20816;50.950;11.108;2023-04-29T01:19:02;97921.78;;;12.36;100.00
34586;BME280;20816;50.950;11.108;2023-04-29T01:21:44;97918.13;;;12.40;100.00
34586;BME280;20816;50.950;11.108;2023-04-29T01:24:12;97922.56;;;12.40;100.00
34586;BME280;20816;50.950;11.108;2023-04-29T01:26:42;97923.66;;;12.34;100.00
34586;BME280;20816;50.950;11.108;2023-04-29T01:32:01;97917.94;;;12.23;100.00
34586;BME280;20816;50.950;11.108;2023-04-29T01:34:50;97920.31;;;12.29;100.00
34586;BME280;20816;50.950;11.108;2023-04-29T01:37:34;97911.38;;;12.33;100.00
34586;BME280;20816;50.950;11.108;2023-04-29T01:40:08;97921.16;;;12.31;100.00
34586;BME280;20816;50.950;11.108;2023-04-29T01:42:43;97918.50;;;12.31;100.00
34586;BME280;20816;50.950;11.108;2023-04-29T01:45:14;97921.50;;;12.22;100.00
34586;BME280;20816;50.950;11.108;2023-04-29T01:47:43;97925.59;;;12.29;100.00
34586;BME280;20816;50.950;11.108;2023-04-29T01:50:12;97919.47;;;12.28;100.00
34586;BME280;20816;50.950;11.108;2023-04-29T01:52:38;97922.09;;;12.28;100.00
34586;BME280;20816;50.950;11.108;2023-04-29T01:55:05;97924.25;;;12.19;100.00
34586;BME280;20816;50.950;11.108;2023-04-29T01:57:32;97920.69;;;12.20;100.00
34586;BME280;20816;50.950;11.108;2023-04-29T01:59:59;97924.25;;;12.19;100.00
34586;BME280;20816;50.950;11.108;2023-04-29T02:02:27;97920.13;;;12.12;100.00
34586;BME280;20816;50.950;11.108;2023-04-29T02:04:54;97921.75;;;12.16;100.00
34586;BME280;20816;50.950;11.108;2023-04-29T02:07:21;97921.53;;;12.20;100.00
34586;BME280;20816;50.950;11.108;2023-04-29T02:09:48;97918.25;;;12.15;100.00
34586;BME280;20816;50.950;11.108;2023-04-29T02:12:15;97917.97;;;11.99;100.00
34586;BME280;20816;50.950;11.108;2023-04-29T02:14:42;97917.84;;;12.02;100.00
34586;BME280;20816;50.950;11.108;2023-04-29T02:17:09;97919.50;;;12.05;100.00
34586;BME280;20816;50.950;11.108;2023-04-29T02:19:35;97919.81;;;11.97;100.00
34586;BME280;20816;50.950;11.108;2023-04-29T02:22:02;97926.44;;;12.07;100.00
34586;BME280;20816;50.950;11.108;2023-04-29T02:24:28;97927.09;;;12.13;100.00
34586;BME280;20816;50.950;11.108;2023-04-29T02:26:55;97914.19;;;12.06;100.00
34586;BME280;20816;50.950;11.108;2023-04-29T02:29:22;97914.78;;;12.13;100.00
34586;BME280;20816;50.950;11.108;2023-04-29T02:31:49;97923.03;;;12.05;100.00
34586;BME280;20816;50.950;11.108;2023-04-29T02:34:16;97916.63;;;12.11;100.00
34586;BME280;20816;50.950;11.108;2023-04-29T02:36:42;97920.94;;;12.14;100.00
34586;BME280;20816;50.950;11.108;2023-04-29T02:39:09;97922.91;;;12.09;100.00
34586;BME280;20816;50.950;11.108;2023-04-29T02:41:35;97916.00;;;12.04;100.00
34586;BME280;20816;50.950;11.108;2023-04-29T02:44:02;97923.75;;;12.09;100.00
34586;BME280;20816;50.950;11.108;2023-04-29T02:46:29;97929.25;;;12.03;100.00
34586;BME280;20816;50.950;11.108;2023-04-29T02:48:58;97923.91;;;12.04;100.00
34586;BME280;20816;50.950;11.108;2023-04-29T02:51:25;97928.28;;;12.05;100.00
34586;BME280;20816;50.950;11.108;2023-04-29T02:53:51;97925.75;;;12.02;100.00
34586;BME280;20816;50.950;11.108;2023-04-29T02:56:18;97924.59;;;12.10;100.00
34586;BME280;20816;50.950;11.108;2023-04-29T02:58:45;97926.31;;;12.11;100.00
34586;BME280;20816;50.950;11.108;2023-04-29T03:01:12;97923.88;;;12.06;100.00
34586;BME280;20816;50.950;11.108;2023-04-29T03:03:38;97930.22;;;12.00;100.00
34586;BME280;20816;50.950;11.108;2023-04-29T03:06:05;97930.34;;;11.97;100.00
34586;BME280;20816;50.950;11.108;2023-04-29T03:08:32;97939.69;;;12.06;100.00
34586;BME280;20816;50.950;11.108;2023-04-29T03:10:59;97937.28;;;12.00;100.00
34586;BME280;20816;50.950;11.108;2023-04-29T03:13:25;97930.75;;;11.87;100.00
34586;BME280;20816;50.950;11.108;2023-04-29T03:15:52;97938.88;;;11.81;100.00
34586;BME280;20816;50.950;11.108;2023-04-29T03:18:19;97939.50;;;11.87;100.00
34586;BME280;20816;50.950;11.108;2023-04-29T03:20:45;97936.19;;;11.82;100.00
34586;BME280;20816;50.950;11.108;2023-04-29T03:23:12;97934.78;;;11.72;100.00
34586;BME280;20816;50.950;11.108;2023-04-29T03:25:39;97938.09;;;11.77;100.00
34586;BME280;20816;50.950;11.108;2023-04-29T03:28:06;97935.59;;;11.74;100.00
34586;BME280;20816;50.950;11.108;2023-04-29T03:30:33;97934.91;;;11.69;100.00
34586;BME280;20816;50.950;11.108;2023-04-29T03:32:59;97936.72;;;11.67;100.00
34586;BME280;20816;50.950;11.108;2023-04-29T03:35:26;97935.03;;;11.66;100.00
34586;BME280;20816;50.950;11.108;2023-04-29T03:37:53;97939.25;;;11.70;100.00
34586;BME280;20816;50.950;11.108;2023-04-29T03:40:19;97939.44;;;11.65;100.00
34586;BME280;20816;50.950;11.108;2023-04-29T03:42:46;97941.41;;;11.84;100.00
34586;BME280;20816;50.950;11.108;2023-04-29T03:45:13;97937.41;;;11.72;100.00
34586;BME280;20816;50.950;11.108;2023-04-29T03:47:40;97944.22;;;11.77;100.00
34586;BME280;20816;50.950;11.108;2023-04-29T03:50:07;97944.34;;;11.74;100.00
34586;BME280;20816;50.950;11.108;2023-04-29T03:52:34;97938.91;;;11.79;100.00
34586;BME280;20816;50.950;11.108;2023-04-29T03:55:04;97940.78;;;11.75;100.00
34586;BME280;20816;50.950;11.108;2023-04-29T03:57:31;97944.78;;;11.87;100.00
34586;BME280;20816;50.950;11.108;2023-04-29T03:59:57;97939.88;;;11.76;100.00
34586;BME280;20816;50.950;11.108;2023-04-29T04:02:24;97958.19;;;11.79;100.00
34586;BME280;20816;50.950;11.108;2023-04-29T04:04:51;97956.53;;;11.77;100.00
34586;BME280;20816;50.950;11.108;2023-04-29T04:07:20;97955.63;;;11.78;100.00
34586;BME280;20816;50.950;11.108;2023-04-29T04:09:47;97962.72;;;11.76;100.00
34586;BME280;20816;50.950;11.108;2023-04-29T04:12:13;97966.88;;;11.83;100.00
34586;BME280;20816;50.950;11.108;2023-04-29T04:14:40;97966.94;;;11.82;100.00
34586;BME280;20816;50.950;11.108;2023-04-29T04:17:07;97965.47;;;11.73;100.00
34586;BME280;20816;50.950;11.108;2023-04-29T04:19:34;97975.19;;;11.71;100.00
34586;BME280;20816;50.950;11.108;2023-04-29T04:22:02;97986.63;;;11.70;100.00
34586;BME280;20816;50.950;11.108;2023-04-29T04:24:29;97988.25;;;11.74;100.00
34586;BME280;20816;50.950;11.108;2023-04-29T04:26:56;97989.25;;;11.70;100.00
34586;BME280;20816;50.950;11.108;2023-04-29T04:29:22;97981.16;;;11.76;100.00
34586;BME280;20816;50.950;11.108;2023-04-29T04:31:49;97991.09;;;11.68;100.00
34586;BME280;20816;50.950;11.108;2023-04-29T04:34:16;97994.72;;;11.64;100.00
34586;BME280;20816;50.950;11.108;2023-04-29T04:36:42;97994.31;;;11.76;100.00
34586;BME280;20816;50.950;11.108;2023-04-29T04:39:09;97993.53;;;11.72;100.00
34586;BME280;20816;50.950;11.108;2023-04-29T04:41:35;98006.50;;;11.54;100.00
34586;BME280;20816;50.950;11.108;2023-04-29T04:44:02;97999.53;;;11.52;100.00
34586;BME280;20816;50.950;11.108;2023-04-29T04:46:29;98005.59;;;11.55;100.00
34586;BME280;20816;50.950;11.108;2023-04-29T04:48:56;97994.84;;;11.61;100.00
34586;BME280;20816;50.950;11.108;2023-04-29T04:51:22;98001.84;;;11.62;100.00
34586;BME280;20816;50.950;11.108;2023-04-29T04:53:49;98001.75;;;11.65;100.00
34586;BME280;20816;50.950;11.108;2023-04-29T04:56:17;97997.09;;;11.71;100.00
34586;BME280;20816;50.950;11.108;2023-04-29T04:58:43;98004.13;;;11.71;100.00
34586;BME280;20816;50.950;11.108;2023-04-29T05:01:10;98002.22;;;11.76;100.00
34586;BME280;20816;50.950;11.108;2023-04-29T05:03:37;98017.22;;;11.74;100.00
34586;BME280;20816;50.950;11.108;2023-04-29T05:06:04;98019.78;;;11.75;100.00
34586;BME280;20816;50.950;11.108;2023-04-29T05:08:31;98007.31;;;11.81;100.00
34586;BME280;20816;50.950;11.108;2023-04-29T05:10:57;98014.34;;;11.82;100.00
34586;BME280;20816;50.950;11.108;2023-04-29T05:13:24;98013.13;;;11.90;100.00
34586;BME280;20816;50.950;11.108;2023-04-29T05:15:51;98017.00;;;11.80;100.00
34586;BME280;20816;50.950;11.108;2023-04-29T05:18:18;98018.50;;;11.87;100.00
34586;BME280;20816;50.950;11.108;2023-04-29T05:20:44;98017.56;;;11.88;100.00
34586;BME280;20816;50.950;11.108;2023-04-29T05:23:11;98026.88;;;11.98;100.00
34586;BME280;20816;50.950;11.108;2023-04-29T05:25:37;98028.69;;;11.96;100.00
34586;BME280;20816;50.950;11.108;2023-04-29T05:28:06;98034.09;;;11.93;100.00
34586;BME280;20816;50.950;11.108;2023-04-29T05:30:32;98031.28;;;11.98;100.00
34586;BME280;20816;50.950;11.108;2023-04-29T05:32:59;98029.53;;;11.97;100.00
34586;BME280;20816;50.950;11.108;2023-04-29T05:35:26;98042.91;;;11.92;100.00
34586;BME280;20816;50.950;11.108;2023-04-29T05:37:53;98044.63;;;11.93;100.00
34586;BME280;20816;50.950;11.108;2023-04-29T05:40:19;98044.94;;;11.84;100.00
34586;BME280;20816;50.950;11.108;2023-04-29T05:42:48;98037.41;;;11.98;100.00
34586;BME280;20816;50.950;11.108;2023-04-29T05:45:15;98039.66;;;12.09;100.00
34586;BME280;20816;50.950;11.108;2023-04-29T05:47:42;98044.56;;;12.18;100.00
34586;BME280;20816;50.950;11.108;2023-04-29T05:50:09;98042.22;;;12.11;100.00
34586;BME280;20816;50.950;11.108;2023-04-29T05:52:37;98047.28;;;12.17;100.00
34586;BME280;20816;50.950;11.108;2023-04-29T05:55:04;98050.34;;;12.28;100.00
34586;BME280;20816;50.950;11.108;2023-04-29T05:57:31;98049.00;;;12.18;100.00
34586;BME280;20816;50.950;11.108;2023-04-29T05:59:58;98055.88;;;12.22;100.00
34586;BME280;20816;50.950;11.108;2023-04-29T06:02:26;98063.78;;;12.22;100.00
34586;BME280;20816;50.950;11.108;2023-04-29T06:04:56;98060.31;;;12.20;100.00
34586;BME280;20816;50.950;11.108;2023-04-29T06:07:23;98058.25;;;12.28;100.00
34586;BME280;20816;50.950;11.108;2023-04-29T06:09:50;98067.00;;;12.30;100.00
34586;BME280;20816;50.950;11.108;2023-04-29T06:12:17;98061.16;;;12.22;100.00
34586;BME280;20816;50.950;11.108;2023-04-29T06:14:44;98069.94;;;12.21;100.00
34586;BME280;20816;50.950;11.108;2023-04-29T06:17:10;98070.75;;;12.23;100.00
34586;BME280;20816;50.950;11.108;2023-04-29T06:19:37;98080.59;;;12.18;100.00
34586;BME280;20816;50.950;11.108;2023-04-29T06:22:04;98090.50;;;12.11;100.00
34586;BME280;20816;50.950;11.108;2023-04-29T06:24:31;98094.00;;;12.12;100.00
34586;BME280;20816;50.950;11.108;2023-04-29T06:26:57;98091.59;;;12.05;100.00
34586;BME280;20816;50.950;11.108;2023-04-29T06:29:24;98100.44;;;12.03;100.00
34586;BME280;20816;50.950;11.108;2023-04-29T06:31:50;98100.28;;;12.07;100.00
34586;BME280;20816;50.950;11.108;2023-04-29T06:34:17;98106.84;;;11.96;100.00
34586;BME280;20816;50.950;11.108;2023-04-29T06:36:45;98110.16;;;11.76;100.00
34586;BME280;20816;50.950;11.108;2023-04-29T06:39:12;98115.41;;;11.76;100.00
34586;BME280;20816;50.950;11.108;2023-04-29T06:41:38;98111.28;;;11.69;100.00
34586;BME280;20816;50.950;11.108;2023-04-29T06:44:06;98118.84;;;11.78;100.00
34586;BME280;20816;50.950;11.108;2023-04-29T06:46:33;98124.97;;;11.78;100.00
34586;BME280;20816;50.950;11.108;2023-04-29T06:48:59;98122.59;;;11.71;100.00
34586;BME280;20816;50.950;11.108;2023-04-29T06:51:26;98131.28;;;11.74;100.00
34586;BME280;20816;50.950;11.108;2023-04-29T06:53:54;98133.03;;;11.74;100.00
34586;BME280;20816;50.950;11.108;2023-04-29T06:56:21;98136.38;;;11.79;100.00
34586;BME280;20816;50.950;11.108;2023-04-29T06:58:48;98146.84;;;11.82;100.00
34586;BME280;20816;50.950;11.108;2023-04-29T07:01:14;98145.06;;;11.83;100.00
34586;BME280;20816;50.950;11.108;2023-04-29T07:03:43;98148.72;;;11.77;100.00
34586;BME280;20816;50.950;11.108;2023-04-29T07:06:10;98141.63;;;11.79;100.00
34586;BME280;20816;50.950;11.108;2023-04-29T07:08:38;98143.38;;;11.80;100.00
34586;BME280;20816;50.950;11.108;2023-04-29T07:11:04;98153.03;;;11.81;100.00
34586;BME280;20816;50.950;11.108;2023-04-29T07:13:31;98151.59;;;11.97;100.00
34586;BME280;20816;50.950;11.108;2023-04-29T07:15:58;98162.22;;;11.94;100.00
34586;BME280;20816;50.950;11.108;2023-04-29T07:18:25;98160.16;;;12.02;100.00
34586;BME280;20816;50.950;11.108;2023-04-29T07:20:51;98157.59;;;12.01;100.00
34586;BME280;20816;50.950;11.108;2023-04-29T07:23:18;98162.22;;;11.94;100.00
34586;BME280;20816;50.950;11.108;2023-04-29T07:25:44;98170.91;;;11.96;100.00
34586;BME280;20816;50.950;11.108;2023-04-29T07:28:11;98171.94;;;11.92;100.00
34586;BME280;20816;50.950;11.108;2023-04-29T07:30:38;98172.94;;;11.88;100.00
34586;BME280;20816;50.950;11.108;2023-04-29T07:33:04;98177.34;;;11.88;100.00
34586;BME280;20816;50.950;11.108;2023-04-29T07:35:31;98182.88;;;11.80;100.00
34586;BME280;20816;50.950;11.108;2023-04-29T07:37:58;98183.94;;;11.74;100.00
34586;BME280;20816;50.950;11.108;2023-04-29T07:40:25;98188.34;;;11.74;100.00
34586;BME280;20816;50.950;11.108;2023-04-29T07:42:52;98190.97;;;11.74;100.00
34586;BME280;20816;50.950;11.108;2023-04-29T07:45:18;98195.97;;;11.83;100.00
34586;BME280;20816;50.950;11.108;2023-04-29T07:47:45;98194.84;;;11.90;100.00
34586;BME280;20816;50.950;11.108;2023-04-29T07:50:12;98203.53;;;11.92;100.00
34586;BME280;20816;50.950;11.108;2023-04-29T07:52:38;98197.47;;;11.90;100.00
34586;BME280;20816;50.950;11.108;2023-04-29T07:55:05;98208.22;;;11.84;100.00
34586;BME280;20816;50.950;11.108;2023-04-29T07:57:32;98215.69;;;11.96;100.00
34586;BME280;20816;50.950;11.108;2023-04-29T07:59:59;98215.84;;;11.92;100.00
34586;BME280;20816;50.950;11.108;2023-04-29T08:02:25;98225.41;;;11.94;100.00
34586;BME280;20816;50.950;11.108;2023-04-29T08:04:52;98232.41;;;11.95;100.00
34586;BME280;20816;50.950;11.108;2023-04-29T08:07:22;98232.47;;;11.94;100.00
34586;BME280;20816;50.950;11.108;2023-04-29T08:09:48;98239.38;;;11.96;100.00
34586;BME280;20816;50.950;11.108;2023-04-29T08:12:15;98231.97;;;11.83;100.00
34586;BME280;20816;50.950;11.108;2023-04-29T08:14:49;98233.84;;;11.77;100.00
34586;BME280;20816;50.950;11.108;2023-04-29T08:17:16;98242.13;;;11.93;100.00
34586;BME280;20816;50.950;11.108;2023-04-29T08:19:43;98242.75;;;12.01;100.00
34586;BME280;20816;50.950;11.108;2023-04-29T08:22:10;98244.75;;;12.20;100.00
34586;BME280;20816;50.950;11.108;2023-04-29T08:24:37;98249.22;;;12.18;100.00
34586;BME280;20816;50.950;11.108;2023-04-29T08:27:04;98252.56;;;12.23;100.00
34586;BME280;20816;50.950;11.108;2023-04-29T08:29:31;98256.31;;;12.16;100.00
34586;BME280;20816;50.950;11.108;2023-04-29T08:32:00;98253.78;;;12.13;100.00
34586;BME280;20816;50.950;11.108;2023-04-29T08:34:27;98259.88;;;12.15;100.00
34586;BME280;20816;50.950;11.108;2023-04-29T08:36:56;98260.72;;;12.15;100.00
34586;BME280;20816;50.950;11.108;2023-04-29T08:39:22;98261.78;;;12.10;100.00
34586;BME280;20816;50.950;11.108;2023-04-29T08:41:49;98272.13;;;12.16;100.00
34586;BME280;20816;50.950;11.108;2023-04-29T08:44:17;98263.69;;;12.04;100.00
34586;BME280;20816;50.950;11.108;2023-04-29T08:46:44;98267.31;;;12.02;100.00
34586;BME280;20816;50.950;11.108;2023-04-29T08:49:12;98270.28;;;12.18;100.00
34586;BME280;20816;50.950;11.108;2023-04-29T08:51:39;98279.09;;;12.43;100.00
34586;BME280;20816;50.950;11.108;2023-04-29T08:54:06;98272.63;;;12.52;100.00
34586;BME280;20816;50.950;11.108;2023-04-29T08:56:33;98276.56;;;12.40;100.00
34586;BME280;20816;50.950;11.108;2023-04-29T08:59:01;98279.16;;;12.42;100.00
34586;BME280;20816;50.950;11.108;2023-04-29T09:01:28;98277.25;;;12.70;100.00
34586;BME280;20816;50.950;11.108;2023-04-29T09:04:08;98280.44;;;12.80;100.00
34586;BME280;20816;50.950;11.108;2023-04-29T09:06:38;98287.81;;;12.95;100.00
34586;BME280;20816;50.950;11.108;2023-04-29T09:09:05;98285.72;;;12.80;100.00
34586;BME280;20816;50.950;11.108;2023-04-29T09:11:32;98299.38;;;12.91;100.00
34586;BME280;20816;50.950;11.108;2023-04-29T09:14:00;98296.22;;;13.30;100.00
34586;BME280;20816;50.950;11.108;2023-04-29T09:16:27;98296.56;;;13.21;100.00
34586;BME280;20816;50.950;11.108;2023-04-29T09:18:55;98306.41;;;13.15;100.00
34586;BME280;20816;50.950;11.108;2023-04-29T09:21:23;98299.63;;;13.08;100.00
34586;BME280;20816;50.950;11.108;2023-04-29T09:23:53;98293.66;;;13.03;100.00
34586;BME280;20816;50.950;11.108;2023-04-29T09:26:20;98299.16;;;13.22;100.00
34586;BME280;20816;50.950;11.108;2023-04-29T09:29:11;98307.28;;;13.39;99.29
34586;BME280;20816;50.950;11.108;2023-04-29T09:31:44;98308.63;;;13.28;98.77
34586;BME280;20816;50.950;11.108;2023-04-29T09:34:12;98319.28;;;13.25;100.00
34586;BME280;20816;50.950;11.108;2023-04-29T09:36:46;98310.50;;;13.24;100.00
34586;BME280;20816;50.950;11.108;2023-04-29T09:39:18;98325.06;;;13.58;100.00
34586;BME280;20816;50.950;11.108;2023-04-29T09:44:40;98332.25;;;13.31;99.47
34586;BME280;20816;50.950;11.108;2023-04-29T09:47:08;98327.34;;;13.45;98.98
34586;BME280;20816;50.950;11.108;2023-04-29T09:49:40;98328.28;;;13.42;100.00
34586;BME280;20816;50.950;11.108;2023-04-29T09:52:12;98334.78;;;13.34;100.00
34586;BME280;20816;50.950;11.108;2023-04-29T09:54:40;98342.59;;;13.12;99.29
34586;BME280;20816;50.950;11.108;2023-04-29T09:57:11;98334.59;;;12.90;100.00
34586;BME280;20816;50.950;11.108;2023-04-29T09:59:39;98346.84;;;12.91;100.00
34586;BME280;20816;50.950;11.108;2023-04-29T10:02:16;98356.69;;;12.86;100.00
34586;BME280;20816;50.950;11.108;2023-04-29T10:04:46;98358.06;;;12.73;100.00
34586;BME280;20816;50.950;11.108;2023-04-29T10:07:14;98357.06;;;12.75;100.00
34586;BME280;20816;50.950;11.108;2023-04-29T10:09:46;98359.13;;;12.67;100.00
34586;BME280;20816;50.950;11.108;2023-04-29T10:12:15;98360.31;;;12.83;100.00
34586;BME280;20816;50.950;11.108;2023-04-29T10:14:52;98355.50;;;12.70;100.00
34586;BME280;20816;50.950;11.108;2023-04-29T10:17:35;98365.97;;;12.98;100.00
34586;BME280;20816;50.950;11.108;2023-04-29T10:20:04;98361.09;;;13.10;100.00
34586;BME280;20816;50.950;11.108;2023-04-29T10:22:52;98367.81;;;13.19;100.00
34586;BME280;20816;50.950;11.108;2023-04-29T10:25:21;98375.47;;;13.02;100.00
34586;BME280;20816;50.950;11.108;2023-04-29T10:27:49;98373.09;;;12.96;100.00
34586;BME280;20816;50.950;11.108;2023-04-29T10:30:17;98371.19;;;12.99;100.00
34586;BME280;20816;50.950;11.108;2023-04-29T10:32:46;98372.50;;;13.12;99.85
34586;BME280;20816;50.950;11.108;2023-04-29T10:35:19;98379.47;;;13.13;100.00
34586;BME280;20816;50.950;11.108;2023-04-29T10:37:48;98387.47;;;13.12;100.00
34586;BME280;20816;50.950;11.108;2023-04-29T10:40:30;98382.28;;;13.34;98.78
34586;BME280;20816;50.950;11.108;2023-04-29T10:43:02;98385.50;;;13.42;97.42
34586;BME280;20816;50.950;11.108;2023-04-29T10:45:31;98376.91;;;13.37;96.65
34586;BME280;20816;50.950;11.108;2023-04-29T10:53:18;98384.75;;;13.13;97.69
34586;BME280;20816;50.950;11.108;2023-04-29T10:56:02;98379.91;;;13.01;99.55
34586;BME280;20816;50.950;11.108;2023-04-29T11:01:06;98391.25;;;13.30;97.80
34586;BME280;20816;50.950;11.108;2023-04-29T11:03:49;98386.63;;;13.10;98.89
34586;BME280;20816;50.950;11.108;2023-04-29T11:09:03;98384.75;;;13.13;98.06
34586;BME280;20816;50.950;11.108;2023-04-29T11:17:12;98401.50;;;13.62;95.57
34586;BME280;20816;50.950;11.108;2023-04-29T11:19:59;98405.03;;;13.38;93.97
34586;BME280;20816;50.950;11.108;2023-04-29T11:22:27;98409.41;;;13.62;92.68
34586;BME280;20816;50.950;11.108;2023-04-29T11:24:58;98408.22;;;13.71;91.60
34586;BME280;20816;50.950;11.108;2023-04-29T11:27:33;98411.34;;;13.57;92.67
34586;BME280;20816;50.950;11.108;2023-04-29T11:30:01;98420.19;;;13.56;90.76
34586;BME280;20816;50.950;11.108;2023-04-29T11:32:32;98417.63;;;13.55;91.34
34586;BME280;20816;50.950;11.108;2023-04-29T11:37:33;98426.22;;;13.60;90.98
34586;BME280;20816;50.950;11.108;2023-04-29T11:40:00;98421.47;;;13.69;90.22
34586;BME280;20816;50.950;11.108;2023-04-29T11:42:27;98430.19;;;13.71;90.20
34586;BME280;20816;50.950;11.108;2023-04-29T11:44:54;98441.78;;;13.67;91.33
34586;BME280;20816;50.950;11.108;2023-04-29T11:47:29;98435.53;;;13.93;91.95
34586;BME280;20816;50.950;11.108;2023-04-29T11:50:07;98435.13;;;13.81;90.02
34586;BME280;20816;50.950;11.108;2023-04-29T11:52:39;98435.13;;;13.81;90.12
34586;BME280;20816;50.950;11.108;2023-04-29T11:55:10;98441.56;;;13.97;89.69
34586;BME280;20816;50.950;11.108;2023-04-29T11:57:38;98439.47;;;14.28;88.65
34586;BME280;20816;50.950;11.108;2023-04-29T12:00:10;98437.03;;;14.46;88.54
34586;BME280;20816;50.950;11.108;2023-04-29T12:02:43;98446.13;;;14.15;88.28
34586;BME280;20816;50.950;11.108;2023-04-29T12:05:12;98446.25;;;14.57;87.46
34586;BME280;20816;50.950;11.108;2023-04-29T12:07:40;98452.28;;;14.61;86.61
34586;BME280;20816;50.950;11.108;2023-04-29T12:10:10;98458.75;;;14.30;86.45
34586;BME280;20816;50.950;11.108;2023-04-29T12:12:40;98458.50;;;14.60;87.38
34586;BME280;20816;50.950;11.108;2023-04-29T12:15:10;98451.22;;;14.65;86.33
34586;BME280;20816;50.950;11.108;2023-04-29T12:17:37;98457.16;;;14.50;86.93
34586;BME280;20816;50.950;11.108;2023-04-29T12:20:06;98463.19;;;14.75;86.32
34586;BME280;20816;50.950;11.108;2023-04-29T12:22:35;98460.25;;;15.03;86.78
34586;BME280;20816;50.950;11.108;2023-04-29T12:25:02;98465.75;;;15.19;84.95
34586;BME280;20816;50.950;11.108;2023-04-29T12:27:29;98468.66;;;14.25;85.62
34586;BME280;20816;50.950;11.108;2023-04-29T12:29:57;98477.84;;;13.92;87.90
34586;BME280;20816;50.950;11.108;2023-04-29T12:32:24;98474.31;;;13.69;89.54
34586;BME280;20816;50.950;11.108;2023-04-29T12:34:51;98476.78;;;13.49;88.87
34586;BME280;20816;50.950;11.108;2023-04-29T12:37:20;98469.22;;;13.13;91.02
34586;BME280;20816;50.950;11.108;2023-04-29T12:39:49;98478.63;;;12.96;92.57
34586;BME280;20816;50.950;11.108;2023-04-29T12:42:16;98481.88;;;12.76;93.44
34586;BME280;20816;50.950;11.108;2023-04-29T12:44:49;98482.13;;;12.68;94.08
34586;BME280;20816;50.950;11.108;2023-04-29T12:47:16;98490.75;;;12.45;95.18
34586;BME280;20816;50.950;11.108;2023-04-29T12:49:44;98483.19;;;12.34;96.24
34586;BME280;20816;50.950;11.108;2023-04-29T12:52:11;98492.53;;;12.46;96.61
34586;BME280;20816;50.950;11.108;2023-04-29T12:54:39;98493.44;;;12.44;95.59
34586;BME280;20816;50.950;11.108;2023-04-29T12:57:10;98488.66;;;12.28;97.19
34586;BME280;20816;50.950;11.108;2023-04-29T12:59:37;98501.69;;;12.33;97.68
34586;BME280;20816;50.950;11.108;2023-04-29T13:02:05;98502.50;;;12.35;97.62
34586;BME280;20816;50.950;11.108;2023-04-29T13:04:31;98500.31;;;12.49;97.00
34586;BME280;20816;50.950;11.108;2023-04-29T13:06:58;98497.56;;;12.52;98.37
34586;BME280;20816;50.950;11.108;2023-04-29T13:09:26;98500.25;;;12.51;97.71
34586;BME280;20816;50.950;11.108;2023-04-29T13:11:53;98501.75;;;12.59;98.73
34586;BME280;20816;50.950;11.108;2023-04-29T13:14:20;98504.31;;;12.62;98.48
34586;BME280;20816;50.950;11.108;2023-04-29T13:16:47;98507.03;;;12.59;98.98
34586;BME280;20816;50.950;11.108;2023-04-29T13:19:13;98506.09;;;12.60;99.55